sensor_id;sensor_type;location;lat;lon;timestamp;temperature;humidity
33269;DHT22;19640;50.944;5.260;2022-09-30T00:02:09;6.40;99.90
33269;DHT22;19640;50.944;5.260;2022-09-30T00:04:36;6.30;99.90
33269;DHT22;19640;50.944;5.260;2022-09-30T00:07:02;6.10;99.90
33269;DHT22;19640;50.944;5.260;2022-09-30T00:09:27;6.00;99.90
33269;DHT22;19640;50.944;5.260;2022-09-30T00:11:53;5.90;99.90
33269;DHT22;19640;50.944;5.260;2022-09-30T00:14:20;6.00;99.90
33269;DHT22;19640;50.944;5.260;2022-09-30T00:16:46;6.10;99.90
33269;DHT22;19640;50.944;5.260;2022-09-30T00:19:12;6.20;99.90
33269;DHT22;19640;50.944;5.260;2022-09-30T00:21:37;6.50;99.90
33269;DHT22;19640;50.944;5.260;2022-09-30T00:24:03;6.70;99.90
33269;DHT22;19640;50.944;5.260;2022-09-30T00:26:29;6.80;99.90
33269;DHT22;19640;50.944;5.260;2022-09-30T00:28:56;6.70;99.90
33269;DHT22;19640;50.944;5.260;2022-09-30T00:31:22;6.60;99.90
33269;DHT22;19640;50.944;5.260;2022-09-30T00:33:48;6.50;99.90
33269;DHT22;19640;50.944;5.260;2022-09-30T00:39:08;6.10;99.90
33269;DHT22;19640;50.944;5.260;2022-09-30T00:41:34;5.90;99.90
33269;DHT22;19640;50.944;5.260;2022-09-30T00:43:59;5.70;99.90
33269;DHT22;19640;50.944;5.260;2022-09-30T00:46:35;5.70;99.90
33269;DHT22;19640;50.944;5.260;2022-09-30T00:49:34;5.50;99.90
33269;DHT22;19640;50.944;5.260;2022-09-30T00:51:54;5.50;99.90
33269;DHT22;19640;50.944;5.260;2022-09-30T00:54:22;5.30;99.90
33269;DHT22;19640;50.944;5.260;2022-09-30T00:56:49;5.10;99.90
33269;DHT22;19640;50.944;5.260;2022-09-30T00:59:16;5.20;99.90
33269;DHT22;19640;50.944;5.260;2022-09-30T01:01:43;5.50;99.90
33269;DHT22;19640;50.944;5.260;2022-09-30T01:04:09;5.70;99.90
33269;DHT22;19640;50.944;5.260;2022-09-30T01:06:36;5.50;99.90
33269;DHT22;19640;50.944;5.260;2022-09-30T01:09:01;5.40;99.90
33269;DHT22;19640;50.944;5.260;2022-09-30T01:11:27;5.60;99.90
33269;DHT22;19640;50.944;5.260;2022-09-30T01:13:53;5.80;99.90
33269;DHT22;19640;50.944;5.260;2022-09-30T01:16:24;5.60;99.90
33269;DHT22;19640;50.944;5.260;2022-09-30T01:24:30;5.60;99.90
33269;DHT22;19640;50.944;5.260;2022-09-30T01:29:26;5.70;99.90
33269;DHT22;19640;50.944;5.260;2022-09-30T01:37:15;5.40;99.90
33269;DHT22;19640;50.944;5.260;2022-09-30T01:47:24;4.90;99.90
33269;DHT22;19640;50.944;5.260;2022-09-30T01:50:02;4.70;99.90
33269;DHT22;19640;50.944;5.260;2022-09-30T01:52:40;4.70;99.90
33269;DHT22;19640;50.944;5.260;2022-09-30T01:57:43;4.60;99.90
33269;DHT22;19640;50.944;5.260;2022-09-30T02:00:10;4.50;99.90
33269;DHT22;19640;50.944;5.260;2022-09-30T02:05:10;4.50;99.90
33269;DHT22;19640;50.944;5.260;2022-09-30T02:07:59;4.60;99.90
33269;DHT22;19640;50.944;5.260;2022-09-30T02:12:57;5.00;99.90
33269;DHT22;19640;50.944;5.260;2022-09-30T02:15:29;5.20;99.90
33269;DHT22;19640;50.944;5.260;2022-09-30T02:17:59;5.40;99.90
33269;DHT22;19640;50.944;5.260;2022-09-30T02:20:28;5.60;99.90
33269;DHT22;19640;50.944;5.260;2022-09-30T02:22:58;5.50;99.90
33269;DHT22;19640;50.944;5.260;2022-09-30T02:25:26;5.20;99.90
33269;DHT22;19640;50.944;5.260;2022-09-30T02:27:53;5.10;99.90
33269;DHT22;19640;50.944;5.260;2022-09-30T02:30:20;5.20;99.90
33269;DHT22;19640;50.944;5.260;2022-09-30T02:32:50;5.40;99.90
33269;DHT22;19640;50.944;5.260;2022-09-30T02:35:18;5.50;99.90
33269;DHT22;19640;50.944;5.260;2022-09-30T02:37:48;5.60;99.90
33269;DHT22;19640;50.944;5.260;2022-09-30T02:40:17;5.70;99.90
33269;DHT22;19640;50.944;5.260;2022-09-30T02:42:46;5.40;99.90
33269;DHT22;19640;50.944;5.260;2022-09-30T02:45:13;5.20;99.90
33269;DHT22;19640;50.944;5.260;2022-09-30T02:53:09;4.80;99.90
33269;DHT22;19640;50.944;5.260;2022-09-30T02:58:14;5.10;99.90
33269;DHT22;19640;50.944;5.260;2022-09-30T03:00:40;5.20;99.90
33269;DHT22;19640;50.944;5.260;2022-09-30T03:03:07;5.40;99.90
33269;DHT22;19640;50.944;5.260;2022-09-30T03:05:34;5.40;99.90
33269;DHT22;19640;50.944;5.260;2022-09-30T03:08:00;5.00;99.90
33269;DHT22;19640;50.944;5.260;2022-09-30T03:10:25;4.80;99.90
33269;DHT22;19640;50.944;5.260;2022-09-30T03:25:35;4.70;99.90
33269;DHT22;19640;50.944;5.260;2022-09-30T03:33:21;5.00;99.90
33269;DHT22;19640;50.944;5.260;2022-09-30T03:43:36;5.20;99.90
33269;DHT22;19640;50.944;5.260;2022-09-30T03:48:33;4.60;99.90
33269;DHT22;19640;50.944;5.260;2022-09-30T03:51:00;4.40;99.90
33269;DHT22;19640;50.944;5.260;2022-09-30T03:53:25;4.30;99.90
33269;DHT22;19640;50.944;5.260;2022-09-30T03:55:52;4.10;99.90
33269;DHT22;19640;50.944;5.260;2022-09-30T03:58:19;4.10;99.90
33269;DHT22;19640;50.944;5.260;2022-09-30T04:00:52;4.10;99.90
33269;DHT22;19640;50.944;5.260;2022-09-30T04:03:18;4.30;99.90
33269;DHT22;19640;50.944;5.260;2022-09-30T04:05:44;4.60;99.90
33269;DHT22;19640;50.944;5.260;2022-09-30T04:08:10;4.70;99.90
33269;DHT22;19640;50.944;5.260;2022-09-30T04:10:37;4.80;99.90
33269;DHT22;19640;50.944;5.260;2022-09-30T04:13:03;4.90;99.90
33269;DHT22;19640;50.944;5.260;2022-09-30T04:15:29;5.00;99.90
33269;DHT22;19640;50.944;5.260;2022-09-30T04:17:54;5.10;99.90
33269;DHT22;19640;50.944;5.260;2022-09-30T04:20:20;5.30;99.90
33269;DHT22;19640;50.944;5.260;2022-09-30T04:22:45;5.50;99.90
33269;DHT22;19640;50.944;5.260;2022-09-30T04:25:11;5.50;99.90
33269;DHT22;19640;50.944;5.260;2022-09-30T04:27:37;5.50;99.90
33269;DHT22;19640;50.944;5.260;2022-09-30T04:30:02;5.50;99.90
33269;DHT22;19640;50.944;5.260;2022-09-30T04:32:28;5.40;99.90
33269;DHT22;19640;50.944;5.260;2022-09-30T04:34:54;5.20;99.90
33269;DHT22;19640;50.944;5.260;2022-09-30T04:37:19;5.10;99.90
33269;DHT22;19640;50.944;5.260;2022-09-30T04:39:45;5.20;99.90
33269;DHT22;19640;50.944;5.260;2022-09-30T04:42:11;5.20;99.90
33269;DHT22;19640;50.944;5.260;2022-09-30T04:44:36;5.10;99.90
33269;DHT22;19640;50.944;5.260;2022-09-30T04:47:02;5.10;99.90
33269;DHT22;19640;50.944;5.260;2022-09-30T04:49:27;5.30;99.90
33269;DHT22;19640;50.944;5.260;2022-09-30T04:51:53;5.50;99.90
33269;DHT22;19640;50.944;5.260;2022-09-30T04:54:18;5.20;99.90
33269;DHT22;19640;50.944;5.260;2022-09-30T04:56:44;5.10;99.90
33269;DHT22;19640;50.944;5.260;2022-09-30T04:59:09;4.90;99.90
33269;DHT22;19640;50.944;5.260;2022-09-30T05:01:35;4.50;99.90
33269;DHT22;19640;50.944;5.260;2022-09-30T05:04:00;4.30;99.90
33269;DHT22;19640;50.944;5.260;2022-09-30T05:06:26;4.20;99.90
33269;DHT22;19640;50.944;5.260;2022-09-30T05:08:51;4.10;99.90
33269;DHT22;19640;50.944;5.260;2022-09-30T05:11:18;4.00;99.90
33269;DHT22;19640;50.944;5.260;2022-09-30T05:13:44;4.00;99.90
33269;DHT22;19640;50.944;5.260;2022-09-30T05:16:10;4.00;99.90
33269;DHT22;19640;50.944;5.260;2022-09-30T05:18:36;4.10;99.90
33269;DHT22;19640;50.944;5.260;2022-09-30T05:21:04;4.10;99.90
33269;DHT22;19640;50.944;5.260;2022-09-30T05:23:30;3.80;99.90
33269;DHT22;19640;50.944;5.260;2022-09-30T05:25:56;3.80;99.90
33269;DHT22;19640;50.944;5.260;2022-09-30T05:28:21;3.80;99.90
33269;DHT22;19640;50.944;5.260;2022-09-30T05:30:47;3.90;99.90
33269;DHT22;19640;50.944;5.260;2022-09-30T05:33:14;4.10;99.90
33269;DHT22;19640;50.944;5.260;2022-09-30T05:35:40;4.00;99.90
33269;DHT22;19640;50.944;5.260;2022-09-30T05:38:06;3.90;99.90
33269;DHT22;19640;50.944;5.260;2022-09-30T05:40:32;3.70;99.90
33269;DHT22;19640;50.944;5.260;2022-09-30T05:42:58;3.80;99.90
33269;DHT22;19640;50.944;5.260;2022-09-30T05:45:24;3.60;99.90
33269;DHT22;19640;50.944;5.260;2022-09-30T05:47:50;3.60;99.90
33269;DHT22;19640;50.944;5.260;2022-09-30T05:50:15;3.70;99.90
33269;DHT22;19640;50.944;5.260;2022-09-30T05:52:41;3.90;99.90
33269;DHT22;19640;50.944;5.260;2022-09-30T05:55:06;4.20;99.90
33269;DHT22;19640;50.944;5.260;2022-09-30T05:57:32;4.40;99.90
33269;DHT22;19640;50.944;5.260;2022-09-30T05:59:57;4.60;99.90
33269;DHT22;19640;50.944;5.260;2022-09-30T06:02:23;4.70;99.90
33269;DHT22;19640;50.944;5.260;2022-09-30T06:04:49;5.00;99.90
33269;DHT22;19640;50.944;5.260;2022-09-30T06:07:15;5.10;99.90
33269;DHT22;19640;50.944;5.260;2022-09-30T06:09:40;5.10;99.90
33269;DHT22;19640;50.944;5.260;2022-09-30T06:12:06;5.20;99.90
33269;DHT22;19640;50.944;5.260;2022-09-30T06:14:32;5.40;99.90
33269;DHT22;19640;50.944;5.260;2022-09-30T06:16:58;5.50;99.90
33269;DHT22;19640;50.944;5.260;2022-09-30T06:19:25;5.40;99.90
33269;DHT22;19640;50.944;5.260;2022-09-30T06:21:52;5.20;99.90
33269;DHT22;19640;50.944;5.260;2022-09-30T06:24:17;5.10;99.90
33269;DHT22;19640;50.944;5.260;2022-09-30T06:26:43;5.00;99.90
33269;DHT22;19640;50.944;5.260;2022-09-30T06:29:08;5.10;99.90
33269;DHT22;19640;50.944;5.260;2022-09-30T06:31:34;5.30;99.90
33269;DHT22;19640;50.944;5.260;2022-09-30T06:33:59;5.00;99.90
33269;DHT22;19640;50.944;5.260;2022-09-30T06:36:26;4.80;99.90
33269;DHT22;19640;50.944;5.260;2022-09-30T06:38:53;5.10;99.90
33269;DHT22;19640;50.944;5.260;2022-09-30T06:41:19;5.20;99.90
33269;DHT22;19640;50.944;5.260;2022-09-30T06:43:45;5.20;99.90
33269;DHT22;19640;50.944;5.260;2022-09-30T06:46:11;5.20;99.90
33269;DHT22;19640;50.944;5.260;2022-09-30T06:48:37;5.10;99.90
33269;DHT22;19640;50.944;5.260;2022-09-30T06:51:02;5.20;99.90
33269;DHT22;19640;50.944;5.260;2022-09-30T06:53:28;5.20;99.90
33269;DHT22;19640;50.944;5.260;2022-09-30T06:55:55;5.10;99.90
33269;DHT22;19640;50.944;5.260;2022-09-30T06:58:20;5.10;99.90
33269;DHT22;19640;50.944;5.260;2022-09-30T07:01:09;5.40;99.90
33269;DHT22;19640;50.944;5.260;2022-09-30T07:03:35;5.70;99.90
33269;DHT22;19640;50.944;5.260;2022-09-30T07:06:02;5.90;99.90
33269;DHT22;19640;50.944;5.260;2022-09-30T07:08:29;6.10;99.90
33269;DHT22;19640;50.944;5.260;2022-09-30T07:10:59;6.20;99.90
33269;DHT22;19640;50.944;5.260;2022-09-30T07:13:25;6.20;99.90
33269;DHT22;19640;50.944;5.260;2022-09-30T07:15:50;6.20;99.90
33269;DHT22;19640;50.944;5.260;2022-09-30T07:18:21;6.50;99.90
33269;DHT22;19640;50.944;5.260;2022-09-30T07:20:47;6.80;99.90
33269;DHT22;19640;50.944;5.260;2022-09-30T07:23:14;6.90;99.90
33269;DHT22;19640;50.944;5.260;2022-09-30T07:25:39;7.10;99.90
33269;DHT22;19640;50.944;5.260;2022-09-30T07:28:12;7.30;99.90
33269;DHT22;19640;50.944;5.260;2022-09-30T07:30:40;7.60;99.90
33269;DHT22;19640;50.944;5.260;2022-09-30T07:33:08;7.70;99.90
33269;DHT22;19640;50.944;5.260;2022-09-30T07:35:33;7.80;99.90
33269;DHT22;19640;50.944;5.260;2022-09-30T07:37:59;8.10;99.90
33269;DHT22;19640;50.944;5.260;2022-09-30T07:40:25;8.70;99.90
33269;DHT22;19640;50.944;5.260;2022-09-30T07:42:55;9.30;99.90
33269;DHT22;19640;50.944;5.260;2022-09-30T07:45:22;9.60;99.90
33269;DHT22;19640;50.944;5.260;2022-09-30T07:47:47;9.90;99.90
33269;DHT22;19640;50.944;5.260;2022-09-30T07:50:13;10.00;99.90
33269;DHT22;19640;50.944;5.260;2022-09-30T07:52:40;10.80;99.90
33269;DHT22;19640;50.944;5.260;2022-09-30T07:55:06;11.20;99.90
33269;DHT22;19640;50.944;5.260;2022-09-30T07:57:31;11.40;99.90
33269;DHT22;19640;50.944;5.260;2022-09-30T07:59:57;11.60;99.90
33269;DHT22;19640;50.944;5.260;2022-09-30T08:02:22;11.70;99.90
33269;DHT22;19640;50.944;5.260;2022-09-30T08:04:49;11.60;99.90
33269;DHT22;19640;50.944;5.260;2022-09-30T08:07:15;11.60;99.90
33269;DHT22;19640;50.944;5.260;2022-09-30T08:09:41;11.60;99.90
33269;DHT22;19640;50.944;5.260;2022-09-30T08:12:06;11.80;99.90
33269;DHT22;19640;50.944;5.260;2022-09-30T08:14:32;11.70;99.90
33269;DHT22;19640;50.944;5.260;2022-09-30T08:16:58;11.90;99.90
33269;DHT22;19640;50.944;5.260;2022-09-30T08:19:24;12.00;99.90
33269;DHT22;19640;50.944;5.260;2022-09-30T08:21:50;12.00;99.90
33269;DHT22;19640;50.944;5.260;2022-09-30T08:24:18;11.90;99.90
33269;DHT22;19640;50.944;5.260;2022-09-30T08:26:47;12.10;99.90
33269;DHT22;19640;50.944;5.260;2022-09-30T08:29:12;12.30;99.90
33269;DHT22;19640;50.944;5.260;2022-09-30T08:31:39;12.40;99.90
33269;DHT22;19640;50.944;5.260;2022-09-30T08:34:05;12.40;99.90
33269;DHT22;19640;50.944;5.260;2022-09-30T08:36:36;12.60;99.90
33269;DHT22;19640;50.944;5.260;2022-09-30T08:39:02;12.50;99.90
33269;DHT22;19640;50.944;5.260;2022-09-30T08:44:09;12.70;99.90
33269;DHT22;19640;50.944;5.260;2022-09-30T08:51:53;12.90;99.90
33269;DHT22;19640;50.944;5.260;2022-09-30T08:54:22;13.00;99.90
33269;DHT22;19640;50.944;5.260;2022-09-30T08:56:48;13.20;99.90
33269;DHT22;19640;50.944;5.260;2022-09-30T09:01:44;13.40;99.90
33269;DHT22;19640;50.944;5.260;2022-09-30T09:04:11;13.50;99.90
33269;DHT22;19640;50.944;5.260;2022-09-30T09:09:26;13.50;99.90
33269;DHT22;19640;50.944;5.260;2022-09-30T09:22:19;13.80;99.90
33269;DHT22;19640;50.944;5.260;2022-09-30T09:24:45;14.00;99.90
33269;DHT22;19640;50.944;5.260;2022-09-30T09:27:19;14.00;99.90
33269;DHT22;19640;50.944;5.260;2022-09-30T09:32:16;14.30;99.90
33269;DHT22;19640;50.944;5.260;2022-09-30T09:34:42;14.40;99.90
33269;DHT22;19640;50.944;5.260;2022-09-30T09:37:16;14.50;99.90
33269;DHT22;19640;50.944;5.260;2022-09-30T09:39:58;14.40;99.90
33269;DHT22;19640;50.944;5.260;2022-09-30T09:42:38;14.40;99.90
33269;DHT22;19640;50.944;5.260;2022-09-30T09:48:01;14.60;99.90
33269;DHT22;19640;50.944;5.260;2022-09-30T09:50:38;14.70;99.90
33269;DHT22;19640;50.944;5.260;2022-09-30T09:55:35;14.80;99.90
33269;DHT22;19640;50.944;5.260;2022-09-30T09:58:06;14.90;99.90
33269;DHT22;19640;50.944;5.260;2022-09-30T10:00:31;14.90;99.90
33269;DHT22;19640;50.944;5.260;2022-09-30T10:03:19;15.00;99.90
33269;DHT22;19640;50.944;5.260;2022-09-30T10:05:59;14.90;99.90
33269;DHT22;19640;50.944;5.260;2022-09-30T10:08:26;15.00;99.90
33269;DHT22;19640;50.944;5.260;2022-09-30T10:10:54;15.10;99.90
33269;DHT22;19640;50.944;5.260;2022-09-30T10:15:46;15.30;99.90
33269;DHT22;19640;50.944;5.260;2022-09-30T10:18:15;15.20;99.90
33269;DHT22;19640;50.944;5.260;2022-09-30T10:20:48;15.30;99.90
33269;DHT22;19640;50.944;5.260;2022-09-30T10:28:24;15.60;99.90
33269;DHT22;19640;50.944;5.260;2022-09-30T10:30:54;15.50;99.90
33269;DHT22;19640;50.944;5.260;2022-09-30T10:33:26;15.40;99.90
33269;DHT22;19640;50.944;5.260;2022-09-30T10:35:54;15.40;99.90
33269;DHT22;19640;50.944;5.260;2022-09-30T10:38:20;15.60;99.90
33269;DHT22;19640;50.944;5.260;2022-09-30T10:40:49;15.70;99.90
33269;DHT22;19640;50.944;5.260;2022-09-30T10:43:20;15.50;99.90
33269;DHT22;19640;50.944;5.260;2022-09-30T10:45:46;15.60;99.90
33269;DHT22;19640;50.944;5.260;2022-09-30T10:48:14;15.80;99.90
33269;DHT22;19640;50.944;5.260;2022-09-30T10:50:41;16.10;99.90
33269;DHT22;19640;50.944;5.260;2022-09-30T10:53:23;16.20;99.90
33269;DHT22;19640;50.944;5.260;2022-09-30T10:55:49;16.30;99.90
33269;DHT22;19640;50.944;5.260;2022-09-30T11:01:54;16.30;99.90
33269;DHT22;19640;50.944;5.260;2022-09-30T11:04:04;16.00;99.90
33269;DHT22;19640;50.944;5.260;2022-09-30T11:06:32;15.70;99.90
33269;DHT22;19640;50.944;5.260;2022-09-30T11:09:11;15.70;99.90
33269;DHT22;19640;50.944;5.260;2022-09-30T11:11:39;15.90;99.90
33269;DHT22;19640;50.944;5.260;2022-09-30T11:19:02;16.50;99.90
33269;DHT22;19640;50.944;5.260;2022-09-30T11:26:45;16.20;99.90
33269;DHT22;19640;50.944;5.260;2022-09-30T11:31:47;16.10;99.90
33269;DHT22;19640;50.944;5.260;2022-09-30T11:39:31;15.90;99.90
33269;DHT22;19640;50.944;5.260;2022-09-30T11:44:34;15.80;99.90
33269;DHT22;19640;50.944;5.260;2022-09-30T11:49:57;16.20;99.90
33269;DHT22;19640;50.944;5.260;2022-09-30T11:57:49;16.60;99.90
33269;DHT22;19640;50.944;5.260;2022-09-30T12:00:17;16.40;99.90
33269;DHT22;19640;50.944;5.260;2022-09-30T12:05:19;16.50;99.90
33269;DHT22;19640;50.944;5.260;2022-09-30T12:10:26;16.40;99.90
33269;DHT22;19640;50.944;5.260;2022-09-30T12:12:53;16.50;99.90
33269;DHT22;19640;50.944;5.260;2022-09-30T12:15:20;16.60;99.90
33269;DHT22;19640;50.944;5.260;2022-09-30T12:17:57;16.60;99.90
33269;DHT22;19640;50.944;5.260;2022-09-30T12:20:25;16.70;99.90
33269;DHT22;19640;50.944;5.260;2022-09-30T12:22:57;16.80;99.90
33269;DHT22;19640;50.944;5.260;2022-09-30T12:25:30;16.40;99.90
33269;DHT22;19640;50.944;5.260;2022-09-30T12:31:24;16.10;99.90
33269;DHT22;19640;50.944;5.260;2022-09-30T12:36:32;16.20;99.90
33269;DHT22;19640;50.944;5.260;2022-09-30T12:39:20;16.20;99.90
33269;DHT22;19640;50.944;5.260;2022-09-30T12:49:25;16.20;99.90
33269;DHT22;19640;50.944;5.260;2022-09-30T12:51:55;16.20;99.90
33269;DHT22;19640;50.944;5.260;2022-09-30T12:56:56;16.30;99.90
33269;DHT22;19640;50.944;5.260;2022-09-30T12:59:45;16.40;99.90
33269;DHT22;19640;50.944;5.260;2022-09-30T13:02:24;16.60;99.90
33269;DHT22;19640;50.944;5.260;2022-09-30T13:04:51;16.70;99.90
33269;DHT22;19640;50.944;5.260;2022-09-30T13:07:17;16.70;99.90
33269;DHT22;19640;50.944;5.260;2022-09-30T13:09:58;16.60;99.90
33269;DHT22;19640;50.944;5.260;2022-09-30T13:12:25;16.60;99.90
33269;DHT22;19640;50.944;5.260;2022-09-30T13:15:20;16.70;99.90
33269;DHT22;19640;50.944;5.260;2022-09-30T13:17:37;16.90;99.90
33269;DHT22;19640;50.944;5.260;2022-09-30T13:20:16;17.10;99.90
33269;DHT22;19640;50.944;5.260;2022-09-30T13:22:53;17.50;99.90
33269;DHT22;19640;50.944;5.260;2022-09-30T13:25:18;17.60;99.90
33269;DHT22;19640;50.944;5.260;2022-09-30T13:27:51;17.40;99.90
33269;DHT22;19640;50.944;5.260;2022-09-30T13:35:33;17.20;99.90
33269;DHT22;19640;50.944;5.260;2022-09-30T13:40:42;17.20;99.90
33269;DHT22;19640;50.944;5.260;2022-09-30T13:43:20;17.20;99.90
33269;DHT22;19640;50.944;5.260;2022-09-30T13:45:48;17.00;99.90
33269;DHT22;19640;50.944;5.260;2022-09-30T13:48:26;17.10;99.90
33269;DHT22;19640;50.944;5.260;2022-09-30T13:50:53;17.10;99.90
33269;DHT22;19640;50.944;5.260;2022-09-30T13:53:29;17.10;99.90
33269;DHT22;19640;50.944;5.260;2022-09-30T13:55:57;17.30;99.90
33269;DHT22;19640;50.944;5.260;2022-09-30T14:03:56;17.40;99.90
33269;DHT22;19640;50.944;5.260;2022-09-30T14:17:06;17.30;99.90
33269;DHT22;19640;50.944;5.260;2022-09-30T14:19:54;17.30;99.90
33269;DHT22;19640;50.944;5.260;2022-09-30T14:22:23;17.20;99.90
33269;DHT22;19640;50.944;5.260;2022-09-30T14:24:51;17.30;99.90
33269;DHT22;19640;50.944;5.260;2022-09-30T14:30:17;17.30;99.90
33269;DHT22;19640;50.944;5.260;2022-09-30T14:35:11;17.20;99.90
33269;DHT22;19640;50.944;5.260;2022-09-30T14:37:43;17.10;99.90
33269;DHT22;19640;50.944;5.260;2022-09-30T14:40:09;17.20;99.90
33269;DHT22;19640;50.944;5.260;2022-09-30T14:42:39;17.30;99.90
33269;DHT22;19640;50.944;5.260;2022-09-30T14:45:05;17.30;99.90
33269;DHT22;19640;50.944;5.260;2022-09-30T14:48:06;17.30;99.90
33269;DHT22;19640;50.944;5.260;2022-09-30T14:50:24;17.30;99.90
33269;DHT22;19640;50.944;5.260;2022-09-30T14:52:51;17.30;99.90
33269;DHT22;19640;50.944;5.260;2022-09-30T14:57:52;17.30;99.90
33269;DHT22;19640;50.944;5.260;2022-09-30T15:00:29;17.20;99.90
33269;DHT22;19640;50.944;5.260;2022-09-30T15:02:56;17.20;99.90
33269;DHT22;19640;50.944;5.260;2022-09-30T15:05:21;17.30;99.90
33269;DHT22;19640;50.944;5.260;2022-09-30T15:07:47;17.50;99.90
33269;DHT22;19640;50.944;5.260;2022-09-30T15:10:17;17.40;99.90
33269;DHT22;19640;50.944;5.260;2022-09-30T15:12:45;17.40;99.90
33269;DHT22;19640;50.944;5.260;2022-09-30T15:15:31;17.40;99.90
33269;DHT22;19640;50.944;5.260;2022-09-30T15:17:58;17.40;99.90
33269;DHT22;19640;50.944;5.260;2022-09-30T15:20:29;17.30;99.90
33269;DHT22;19640;50.944;5.260;2022-09-30T15:22:55;17.30;99.90
33269;DHT22;19640;50.944;5.260;2022-09-30T15:25:22;17.40;99.90
33269;DHT22;19640;50.944;5.260;2022-09-30T15:27:48;17.30;99.90
33269;DHT22;19640;50.944;5.260;2022-09-30T15:32:39;17.20;99.90
33269;DHT22;19640;50.944;5.260;2022-09-30T15:35:06;17.30;99.90
33269;DHT22;19640;50.944;5.260;2022-09-30T15:37:31;17.10;99.90
33269;DHT22;19640;50.944;5.260;2022-09-30T15:39:58;17.10;99.90
33269;DHT22;19640;50.944;5.260;2022-09-30T15:42:51;17.00;99.90
33269;DHT22;19640;50.944;5.260;2022-09-30T15:45:27;16.90;99.90
33269;DHT22;19640;50.944;5.260;2022-09-30T15:48:01;17.00;99.90
33269;DHT22;19640;50.944;5.260;2022-09-30T15:53:24;17.00;99.90
33269;DHT22;19640;50.944;5.260;2022-09-30T15:55:52;16.90;99.90
33269;DHT22;19640;50.944;5.260;2022-09-30T15:58:29;16.90;99.90
33269;DHT22;19640;50.944;5.260;2022-09-30T16:03:46;16.50;99.90
33269;DHT22;19640;50.944;5.260;2022-09-30T16:06:13;16.60;99.90
33269;DHT22;19640;50.944;5.260;2022-09-30T16:08:43;16.60;99.90
33269;DHT22;19640;50.944;5.260;2022-09-30T16:14:08;16.40;99.90
33269;DHT22;19640;50.944;5.260;2022-09-30T16:16:34;16.40;99.90
33269;DHT22;19640;50.944;5.260;2022-09-30T16:19:02;16.20;99.90
33269;DHT22;19640;50.944;5.260;2022-09-30T16:21:44;16.20;99.90
33269;DHT22;19640;50.944;5.260;2022-09-30T16:26:48;16.20;99.90
33269;DHT22;19640;50.944;5.260;2022-09-30T16:29:14;16.30;99.90
33269;DHT22;19640;50.944;5.260;2022-09-30T16:31:41;16.10;99.90
33269;DHT22;19640;50.944;5.260;2022-09-30T16:34:09;15.90;99.90
33269;DHT22;19640;50.944;5.260;2022-09-30T16:36:41;15.90;99.90
33269;DHT22;19640;50.944;5.260;2022-09-30T16:39:07;15.70;99.90
33269;DHT22;19640;50.944;5.260;2022-09-30T16:41:34;15.60;99.90
33269;DHT22;19640;50.944;5.260;2022-09-30T16:44:00;15.60;99.90
33269;DHT22;19640;50.944;5.260;2022-09-30T16:46:26;15.60;99.90
33269;DHT22;19640;50.944;5.260;2022-09-30T16:48:51;15.40;99.90
33269;DHT22;19640;50.944;5.260;2022-09-30T16:51:17;15.30;99.90
33269;DHT22;19640;50.944;5.260;2022-09-30T16:53:42;15.30;99.90
33269;DHT22;19640;50.944;5.260;2022-09-30T16:56:15;15.30;99.90
33269;DHT22;19640;50.944;5.260;2022-09-30T16:58:41;15.20;99.90
33269;DHT22;19640;50.944;5.260;2022-09-30T17:01:18;15.20;99.90
33269;DHT22;19640;50.944;5.260;2022-09-30T17:03:44;15.00;99.90
33269;DHT22;19640;50.944;5.260;2022-09-30T17:06:11;14.90;99.90
33269;DHT22;19640;50.944;5.260;2022-09-30T17:08:36;14.80;99.90
33269;DHT22;19640;50.944;5.260;2022-09-30T17:11:02;14.80;99.90
33269;DHT22;19640;50.944;5.260;2022-09-30T17:13:27;14.80;99.90
33269;DHT22;19640;50.944;5.260;2022-09-30T17:15:54;14.70;99.90
33269;DHT22;19640;50.944;5.260;2022-09-30T17:18:20;14.80;99.90
33269;DHT22;19640;50.944;5.260;2022-09-30T17:20:46;14.50;99.90
33269;DHT22;19640;50.944;5.260;2022-09-30T17:23:17;14.70;99.90
33269;DHT22;19640;50.944;5.260;2022-09-30T17:25:44;14.70;99.90
33269;DHT22;19640;50.944;5.260;2022-09-30T17:28:10;14.60;99.90
33269;DHT22;19640;50.944;5.260;2022-09-30T17:30:35;14.60;99.90
33269;DHT22;19640;50.944;5.260;2022-09-30T17:33:03;14.60;99.90
33269;DHT22;19640;50.944;5.260;2022-09-30T17:35:29;14.60;99.90
33269;DHT22;19640;50.944;5.260;2022-09-30T17:37:55;14.60;99.90
33269;DHT22;19640;50.944;5.260;2022-09-30T17:40:20;14.50;99.90
33269;DHT22;19640;50.944;5.260;2022-09-30T17:43:04;14.40;99.90
33269;DHT22;19640;50.944;5.260;2022-09-30T17:45:35;14.30;99.90
33269;DHT22;19640;50.944;5.260;2022-09-30T17:48:02;14.30;99.90
33269;DHT22;19640;50.944;5.260;2022-09-30T17:50:27;14.20;99.90
33269;DHT22;19640;50.944;5.260;2022-09-30T17:52:53;14.30;99.90
33269;DHT22;19640;50.944;5.260;2022-09-30T17:55:19;14.50;99.90
33269;DHT22;19640;50.944;5.260;2022-09-30T17:57:44;14.50;99.90
33269;DHT22;19640;50.944;5.260;2022-09-30T18:00:10;14.50;99.90
33269;DHT22;19640;50.944;5.260;2022-09-30T18:02:37;14.40;99.90
33269;DHT22;19640;50.944;5.260;2022-09-30T18:05:03;14.40;99.90
33269;DHT22;19640;50.944;5.260;2022-09-30T18:07:29;14.30;99.90
33269;DHT22;19640;50.944;5.260;2022-09-30T18:09:54;14.20;99.90
33269;DHT22;19640;50.944;5.260;2022-09-30T18:12:20;14.20;99.90
33269;DHT22;19640;50.944;5.260;2022-09-30T18:14:45;14.20;99.90
33269;DHT22;19640;50.944;5.260;2022-09-30T18:17:11;14.10;99.90
33269;DHT22;19640;50.944;5.260;2022-09-30T18:19:36;14.10;99.90
33269;DHT22;19640;50.944;5.260;2022-09-30T18:22:02;14.20;99.90
33269;DHT22;19640;50.944;5.260;2022-09-30T18:24:28;14.10;99.90
33269;DHT22;19640;50.944;5.260;2022-09-30T18:27:28;14.00;99.90
33269;DHT22;19640;50.944;5.260;2022-09-30T18:30:01;13.80;99.90
33269;DHT22;19640;50.944;5.260;2022-09-30T18:32:27;13.80;99.90
33269;DHT22;19640;50.944;5.260;2022-09-30T18:34:53;14.00;99.90
33269;DHT22;19640;50.944;5.260;2022-09-30T18:37:20;13.90;99.90
33269;DHT22;19640;50.944;5.260;2022-09-30T18:39:46;13.90;99.90
33269;DHT22;19640;50.944;5.260;2022-09-30T18:42:12;13.70;99.90
33269;DHT22;19640;50.944;5.260;2022-09-30T18:44:37;13.70;99.90
33269;DHT22;19640;50.944;5.260;2022-09-30T18:47:04;13.80;99.90
33269;DHT22;19640;50.944;5.260;2022-09-30T18:49:29;13.70;99.90
33269;DHT22;19640;50.944;5.260;2022-09-30T18:51:55;13.70;99.90
33269;DHT22;19640;50.944;5.260;2022-09-30T18:57:24;13.60;99.90
33269;DHT22;19640;50.944;5.260;2022-09-30T18:59:50;13.70;99.90
33269;DHT22;19640;50.944;5.260;2022-09-30T19:02:15;13.70;99.90
33269;DHT22;19640;50.944;5.260;2022-09-30T19:04:45;13.60;99.90
33269;DHT22;19640;50.944;5.260;2022-09-30T19:07:13;13.40;99.90
33269;DHT22;19640;50.944;5.260;2022-09-30T19:09:38;13.30;99.90
33269;DHT22;19640;50.944;5.260;2022-09-30T19:12:05;13.40;99.90
33269;DHT22;19640;50.944;5.260;2022-09-30T19:14:31;13.50;99.90